Time;durP1;ratioP1;P1;durP2;ratioP2;P2;SDS_P1;SDS_P2;PMS_P1;PMS_P2;Temp;Humidity;BMP_temperature;BMP_pressure;BME280_temperature;BME280_humidity;BME280_pressure;Samples;Min_cycle;Max_cycle;Signal;HPM_P1;HPM_P2
2022/08/28 00:02:12;;;;;;;0.50;0.20;;;;;;;;;;5028333;28;20073;-68
2022/08/28 00:04:42;;;;;;;0.10;0.10;;;;;;;;;;5024775;28;20082;-67
2022/08/28 00:07:12;;;;;;;0.00;0.00;;;;;;;;;;5028697;28;20060;-68
2022/08/28 00:09:41;;;;;;;0.38;0.38;;;;;;;;;;5025732;28;20509;-67
2022/08/28 00:12:11;;;;;;;0.22;0.20;;;;;;;;;;5028851;28;20085;-67
2022/08/28 00:14:39;;;;;;;0.90;0.38;;;;;;;;;;5028625;28;20390;-67
2022/08/28 00:17:08;;;;;;;3.53;0.30;;;;;;;;;;5029935;28;20053;-67
2022/08/28 00:19:36;;;;;;;0.40;0.20;;;;;;;;;;5027720;28;20049;-69
2022/08/28 00:22:06;;;;;;;0.43;0.30;;;;;;;;;;5028573;28;20053;-70
2022/08/28 00:24:36;;;;;;;0.00;0.00;;;;;;;;;;5024931;28;20050;-68
2022/08/28 00:30:02;;;;;;;0.43;0.13;;;;;;;;;;4986617;28;20054;-67
2022/08/28 00:32:33;;;;;;;0.65;0.30;;;;;;;;;;5016981;28;20124;-67
2022/08/28 00:35:02;;;;;;;0.55;0.32;;;;;;;;;;5023677;28;20046;-67
2022/08/28 00:37:30;;;;;;;0.20;0.20;;;;;;;;;;5027259;28;20068;-68
2022/08/28 00:40:00;;;;;;;0.80;0.20;;;;;;;;;;5030402;28;20390;-67
2022/08/28 00:42:29;;;;;;;0.22;0.20;;;;;;;;;;5028400;28;20081;-67
2022/08/28 00:44:57;;;;;;;0.20;0.20;;;;;;;;;;5030143;28;20136;-68
2022/08/28 00:47:27;;;;;;;1.85;0.28;;;;;;;;;;5024818;28;20788;-67
2022/08/28 00:49:56;;;;;;;0.55;0.20;;;;;;;;;;5030232;28;20073;-67
2022/08/28 00:52:24;;;;;;;0.85;0.30;;;;;;;;;;5028884;28;20041;-68
2022/08/28 00:54:55;;;;;;;0.15;0.13;;;;;;;;;;5027437;28;20072;-67
2022/08/28 00:57:29;;;;;;;0.30;0.20;;;;;;;;;;5024405;28;20551;-68
2022/08/28 00:59:57;;;;;;;0.22;0.22;;;;;;;;;;5024357;28;20413;-67
2022/08/28 01:02:26;;;;;;;0.85;0.40;;;;;;;;;;5025203;28;20072;-70
2022/08/28 01:04:55;;;;;;;0.35;0.20;;;;;;;;;;5025953;28;20176;-66
2022/08/28 01:07:24;;;;;;;0.35;0.20;;;;;;;;;;5026409;28;20401;-68
2022/08/28 01:09:54;;;;;;;0.10;0.10;;;;;;;;;;5018744;28;20068;-69
2022/08/28 01:12:23;;;;;;;1.30;0.40;;;;;;;;;;5027515;28;20093;-67
2022/08/28 01:14:57;;;;;;;0.00;0.00;;;;;;;;;;5026756;28;20466;-65
2022/08/28 01:17:27;;;;;;;0.20;0.20;;;;;;;;;;5024712;28;20532;-69
2022/08/28 01:19:58;;;;;;;0.38;0.20;;;;;;;;;;5026156;28;20132;-66
2022/08/28 01:22:30;;;;;;;0.10;0.10;;;;;;;;;;5026016;28;20178;-69
2022/08/28 01:25:02;;;;;;;0.43;0.20;;;;;;;;;;5025186;28;20111;-67
2022/08/28 01:27:30;;;;;;;0.22;0.20;;;;;;;;;;5026159;28;20144;-67
2022/08/28 01:29:59;;;;;;;0.63;0.30;;;;;;;;;;5028925;28;20456;-69
2022/08/28 01:32:30;;;;;;;0.43;0.30;;;;;;;;;;5023512;28;20104;-69
2022/08/28 01:34:59;;;;;;;1.60;0.93;;;;;;;;;;5027334;28;20053;-67
2022/08/28 01:37:28;;;;;;;0.20;0.20;;;;;;;;;;5025538;28;20125;-67
2022/08/28 01:39:56;;;;;;;0.80;0.35;;;;;;;;;;5028800;28;20053;-66
2022/08/28 01:42:26;;;;;;;0.55;0.28;;;;;;;;;;5019552;28;20048;-68
2022/08/28 01:44:54;;;;;;;0.10;0.10;;;;;;;;;;5028722;28;20251;-67
2022/08/28 01:47:23;;;;;;;0.52;0.25;;;;;;;;;;5020439;28;20052;-67
2022/08/28 01:49:51;;;;;;;0.30;0.10;;;;;;;;;;5027925;28;20049;-67
2022/08/28 01:52:20;;;;;;;0.50;0.40;;;;;;;;;;5024925;28;20048;-67
2022/08/28 01:54:53;;;;;;;0.75;0.28;;;;;;;;;;5027818;28;20047;-67
2022/08/28 01:57:26;;;;;;;1.10;0.52;;;;;;;;;;5026649;28;20091;-66
2022/08/28 01:59:54;;;;;;;0.75;0.30;;;;;;;;;;5022080;28;20076;-66
2022/08/28 02:02:22;;;;;;;0.98;0.40;;;;;;;;;;5024341;28;20121;-69
2022/08/28 02:04:52;;;;;;;0.40;0.30;;;;;;;;;;5024679;28;20084;-66
2022/08/28 02:07:20;;;;;;;3.40;0.68;;;;;;;;;;5028754;28;20072;-66
2022/08/28 02:09:48;;;;;;;0.20;0.20;;;;;;;;;;5026473;28;20427;-68
2022/08/28 02:12:17;;;;;;;0.20;0.20;;;;;;;;;;5025611;28;20084;-68
2022/08/28 02:14:47;;;;;;;0.93;0.30;;;;;;;;;;5026102;28;20107;-67
2022/08/28 02:17:15;;;;;;;0.82;0.47;;;;;;;;;;5036116;28;20134;-69
2022/08/28 02:19:43;;;;;;;0.35;0.35;;;;;;;;;;5041187;28;20578;-69
2022/08/28 02:22:12;;;;;;;0.60;0.30;;;;;;;;;;5047835;28;20192;-68
2022/08/28 02:24:40;;;;;;;0.40;0.22;;;;;;;;;;5043827;28;20136;-68
2022/08/28 02:27:09;;;;;;;0.65;0.40;;;;;;;;;;5047095;28;20459;-67
2022/08/28 02:29:38;;;;;;;1.30;0.40;;;;;;;;;;5045979;28;20098;-68
2022/08/28 02:32:07;;;;;;;0.80;0.40;;;;;;;;;;5038688;28;20072;-68
2022/08/28 02:34:36;;;;;;;0.38;0.20;;;;;;;;;;5040686;28;20080;-67
2022/08/28 02:37:07;;;;;;;0.28;0.15;;;;;;;;;;5046314;28;20063;-69
2022/08/28 02:39:36;;;;;;;0.50;0.40;;;;;;;;;;5044743;28;20542;-67
2022/08/28 02:42:04;;;;;;;1.02;0.20;;;;;;;;;;5041743;28;20122;-68
2022/08/28 02:44:33;;;;;;;0.22;0.20;;;;;;;;;;5047525;28;20128;-68
2022/08/28 02:47:02;;;;;;;0.20;0.20;;;;;;;;;;5047305;28;20076;-68
2022/08/28 02:49:31;;;;;;;1.00;0.40;;;;;;;;;;5045688;28;20136;-68
2022/08/28 02:52:05;;;;;;;0.70;0.43;;;;;;;;;;5041962;28;20041;-68
2022/08/28 02:54:34;;;;;;;0.68;0.40;;;;;;;;;;5043380;28;20046;-68
2022/08/28 02:57:02;;;;;;;0.75;0.30;;;;;;;;;;5052317;28;20135;-68
2022/08/28 02:59:31;;;;;;;0.93;0.40;;;;;;;;;;5049390;28;20080;-68
2022/08/28 03:02:02;;;;;;;1.10;0.65;;;;;;;;;;5044866;28;20075;-67
2022/08/28 03:04:32;;;;;;;0.10;0.10;;;;;;;;;;5050434;28;20120;-66
2022/08/28 03:07:00;;;;;;;1.13;0.47;;;;;;;;;;5044507;28;20124;-67
2022/08/28 03:09:29;;;;;;;0.88;0.38;;;;;;;;;;5046536;28;20053;-67
2022/08/28 03:11:57;;;;;;;0.85;0.52;;;;;;;;;;5045248;28;20045;-67
2022/08/28 03:14:26;;;;;;;0.55;0.50;;;;;;;;;;5047807;28;20140;-67
2022/08/28 03:16:55;;;;;;;0.73;0.40;;;;;;;;;;5050165;28;20488;-67
2022/08/28 03:19:23;;;;;;;0.22;0.20;;;;;;;;;;5046483;28;20053;-67
2022/08/28 03:21:55;;;;;;;0.85;0.30;;;;;;;;;;5050591;28;20503;-65
2022/08/28 03:24:24;;;;;;;0.30;0.28;;;;;;;;;;5047819;28;20064;-65
2022/08/28 03:26:52;;;;;;;0.28;0.20;;;;;;;;;;5048350;28;20053;-64
2022/08/28 03:29:20;;;;;;;0.50;0.47;;;;;;;;;;5050478;28;20128;-64
2022/08/28 03:31:49;;;;;;;0.88;0.32;;;;;;;;;;5050059;28;20471;-68
2022/08/28 03:34:17;;;;;;;0.45;0.28;;;;;;;;;;5050273;28;20067;-65
2022/08/28 03:36:46;;;;;;;0.75;0.50;;;;;;;;;;5050020;28;20293;-66
2022/08/28 03:39:15;;;;;;;0.40;0.40;;;;;;;;;;5049199;28;20045;-66
2022/08/28 03:41:44;;;;;;;0.90;0.80;;;;;;;;;;5050632;28;20076;-65
2022/08/28 03:44:12;;;;;;;0.55;0.40;;;;;;;;;;5049296;28;20415;-65
2022/08/28 03:46:40;;;;;;;0.90;0.40;;;;;;;;;;5048764;28;20075;-66
2022/08/28 03:49:09;;;;;;;0.35;0.10;;;;;;;;;;5049936;28;20052;-65
2022/08/28 03:51:37;;;;;;;0.77;0.47;;;;;;;;;;5048436;28;20041;-65
2022/08/28 03:54:05;;;;;;;0.75;0.50;;;;;;;;;;5050013;28;20049;-66
2022/08/28 03:56:35;;;;;;;1.17;0.68;;;;;;;;;;5045412;28;20080;-67
2022/08/28 03:59:05;;;;;;;0.77;0.55;;;;;;;;;;5044462;28;20041;-66
2022/08/28 04:01:33;;;;;;;0.50;0.30;;;;;;;;;;5049383;28;20132;-65
2022/08/28 04:04:01;;;;;;;0.30;0.30;;;;;;;;;;5045304;28;20479;-66
2022/08/28 04:06:30;;;;;;;1.20;0.38;;;;;;;;;;5042518;28;20080;-65
2022/08/28 04:08:59;;;;;;;0.25;0.25;;;;;;;;;;5049303;28;20092;-66
2022/08/28 04:11:27;;;;;;;0.30;0.30;;;;;;;;;;5045110;28;20041;-67
2022/08/28 04:13:57;;;;;;;0.22;0.22;;;;;;;;;;5042314;28;20049;-67
2022/08/28 04:16:26;;;;;;;0.52;0.47;;;;;;;;;;5048137;28;20565;-68
2022/08/28 04:18:55;;;;;;;0.95;0.40;;;;;;;;;;5047734;28;20049;-65
2022/08/28 04:21:24;;;;;;;1.17;0.80;;;;;;;;;;5049192;28;20055;-66
2022/08/28 04:23:53;;;;;;;0.52;0.43;;;;;;;;;;5044241;28;20048;-66
2022/08/28 04:26:24;;;;;;;0.57;0.32;;;;;;;;;;5049018;28;20053;-66
2022/08/28 04:28:53;;;;;;;0.35;0.35;;;;;;;;;;5044103;28;20136;-66
2022/08/28 04:31:24;;;;;;;1.45;0.50;;;;;;;;;;5047809;28;20052;-65
2022/08/28 04:34:00;;;;;;;0.68;0.55;;;;;;;;;;5047697;28;20053;-65
2022/08/28 04:36:28;;;;;;;0.32;0.22;;;;;;;;;;5048357;28;20583;-69
2022/08/28 04:38:57;;;;;;;2.58;0.57;;;;;;;;;;5044831;28;20078;-66
2022/08/28 04:41:26;;;;;;;1.27;0.70;;;;;;;;;;5043704;28;20568;-65
2022/08/28 04:43:56;;;;;;;0.85;0.55;;;;;;;;;;5049909;28;20080;-65
2022/08/28 04:46:26;;;;;;;0.70;0.32;;;;;;;;;;5048294;28;20049;-66
2022/08/28 04:48:58;;;;;;;0.90;0.47;;;;;;;;;;5045173;28;20076;-66
2022/08/28 04:51:27;;;;;;;2.28;0.60;;;;;;;;;;5048785;28;20075;-66
2022/08/28 04:53:55;;;;;;;1.25;0.70;;;;;;;;;;5054291;28;20131;-66
2022/08/28 04:56:25;;;;;;;0.57;0.57;;;;;;;;;;5046732;28;20088;-65
2022/08/28 04:58:53;;;;;;;1.23;0.90;;;;;;;;;;5055472;28;20045;-68
2022/08/28 05:01:24;;;;;;;1.00;0.82;;;;;;;;;;5044724;28;20044;-65
2022/08/28 05:03:56;;;;;;;3.30;1.13;;;;;;;;;;5040169;28;20507;-65
2022/08/28 05:06:26;;;;;;;0.60;0.57;;;;;;;;;;5047366;28;20135;-66
2022/08/28 05:08:55;;;;;;;1.77;1.00;;;;;;;;;;5052349;28;20642;-66
2022/08/28 05:11:24;;;;;;;1.50;0.63;;;;;;;;;;5047269;28;20653;-65
2022/08/28 05:14:03;;;;;;;1.05;0.60;;;;;;;;;;5042552;28;20041;-66
2022/08/28 05:16:32;;;;;;;1.50;0.70;;;;;;;;;;5046319;28;20423;-65
2022/08/28 05:19:02;;;;;;;1.55;0.68;;;;;;;;;;5048164;28;20517;-66
2022/08/28 05:21:30;;;;;;;2.05;0.90;;;;;;;;;;5048424;28;20056;-66
2022/08/28 05:23:59;;;;;;;1.92;0.77;;;;;;;;;;5044207;28;20556;-65
2022/08/28 05:26:28;;;;;;;1.05;0.80;;;;;;;;;;5045465;28;20126;-66
2022/08/28 05:28:57;;;;;;;1.13;0.57;;;;;;;;;;5045739;28;20492;-65
2022/08/28 05:31:27;;;;;;;0.95;0.60;;;;;;;;;;5045892;28;20103;-66
2022/08/28 05:33:56;;;;;;;1.42;0.93;;;;;;;;;;5053863;28;20156;-65
2022/08/28 05:36:26;;;;;;;1.30;0.80;;;;;;;;;;5046207;28;20041;-65
2022/08/28 05:39:01;;;;;;;0.40;0.40;;;;;;;;;;5041866;28;20053;-66
2022/08/28 05:41:30;;;;;;;2.15;0.95;;;;;;;;;;5046442;28;20103;-65
2022/08/28 05:43:58;;;;;;;0.75;0.75;;;;;;;;;;5048555;28;20465;-67
2022/08/28 05:46:27;;;;;;;1.42;1.00;;;;;;;;;;5047197;28;20103;-65
2022/08/28 05:48:56;;;;;;;2.55;0.98;;;;;;;;;;5044728;28;20041;-66
2022/08/28 05:51:26;;;;;;;1.63;0.90;;;;;;;;;;5047710;28;20049;-65
2022/08/28 05:53:56;;;;;;;2.13;0.75;;;;;;;;;;5046437;28;20056;-65
2022/08/28 05:56:28;;;;;;;2.90;1.08;;;;;;;;;;5047221;28;20144;-66
2022/08/28 05:58:57;;;;;;;1.83;0.90;;;;;;;;;;5044593;28;20099;-69
2022/08/28 06:01:27;;;;;;;1.80;0.93;;;;;;;;;;5043903;28;20114;-67
2022/08/28 06:03:57;;;;;;;2.38;1.08;;;;;;;;;;5044062;28;20041;-67
2022/08/28 06:06:28;;;;;;;1.75;1.00;;;;;;;;;;5046422;28;20071;-67
2022/08/28 06:08:57;;;;;;;2.47;1.35;;;;;;;;;;5044580;28;20136;-67
2022/08/28 06:11:27;;;;;;;2.03;0.98;;;;;;;;;;5039799;28;20110;-66
2022/08/28 06:13:59;;;;;;;1.80;0.90;;;;;;;;;;5039470;28;20342;-67
2022/08/28 06:16:29;;;;;;;1.60;0.95;;;;;;;;;;5038635;28;20562;-68
2022/08/28 06:18:57;;;;;;;1.52;1.02;;;;;;;;;;5038617;28;20052;-68
2022/08/28 06:21:27;;;;;;;1.98;1.38;;;;;;;;;;5040658;28;20552;-66
2022/08/28 06:23:56;;;;;;;3.20;1.80;;;;;;;;;;5040519;28;20099;-66
2022/08/28 06:26:24;;;;;;;0.98;0.77;;;;;;;;;;5044238;28;20505;-67
2022/08/28 06:28:53;;;;;;;2.42;1.60;;;;;;;;;;5040223;28;20996;-66
2022/08/28 06:31:21;;;;;;;2.05;1.48;;;;;;;;;;5050010;28;20128;-66
2022/08/28 06:33:54;;;;;;;2.05;1.58;;;;;;;;;;5043338;28;20131;-66
2022/08/28 06:36:23;;;;;;;3.65;1.92;;;;;;;;;;5047905;28;20110;-67
2022/08/28 06:38:54;;;;;;;2.15;1.33;;;;;;;;;;5051943;28;20049;-66
2022/08/28 06:41:22;;;;;;;4.78;1.80;;;;;;;;;;5051416;28;20087;-66
2022/08/28 06:43:51;;;;;;;1.95;0.90;;;;;;;;;;5045389;28;20048;-66
2022/08/28 06:46:20;;;;;;;3.20;1.40;;;;;;;;;;5051202;28;20127;-66
2022/08/28 06:48:49;;;;;;;2.70;1.33;;;;;;;;;;5052219;28;20132;-66
2022/08/28 06:51:17;;;;;;;2.17;1.15;;;;;;;;;;5049629;28;20049;-66
2022/08/28 06:53:46;;;;;;;4.53;1.80;;;;;;;;;;5052914;28;20090;-67
2022/08/28 06:56:18;;;;;;;3.00;1.58;;;;;;;;;;5049297;28;20049;-66
2022/08/28 06:58:55;;;;;;;3.15;1.60;;;;;;;;;;5046169;28;20064;-67
2022/08/28 07:01:25;;;;;;;2.90;1.42;;;;;;;;;;5050757;28;20479;-67
2022/08/28 07:03:55;;;;;;;3.90;1.55;;;;;;;;;;5049294;28;20512;-66
2022/08/28 07:06:24;;;;;;;5.43;2.20;;;;;;;;;;5045430;28;20132;-69
2022/08/28 07:08:52;;;;;;;3.20;1.73;;;;;;;;;;5046779;28;20083;-66
2022/08/28 07:11:24;;;;;;;2.92;1.75;;;;;;;;;;5047402;28;20099;-67
2022/08/28 07:13:54;;;;;;;3.60;1.67;;;;;;;;;;5040720;28;20044;-66
2022/08/28 07:16:23;;;;;;;3.65;1.83;;;;;;;;;;5043930;28;20632;-67
2022/08/28 07:18:52;;;;;;;4.47;1.98;;;;;;;;;;5042730;28;20046;-67
2022/08/28 07:21:21;;;;;;;4.60;1.95;;;;;;;;;;5048333;28;20107;-66
2022/08/28 07:23:49;;;;;;;5.55;2.20;;;;;;;;;;5049605;28;20541;-66
2022/08/28 07:26:19;;;;;;;3.28;1.58;;;;;;;;;;5047372;28;20075;-67
2022/08/28 07:28:48;;;;;;;2.45;1.40;;;;;;;;;;5047002;28;20131;-67
2022/08/28 07:31:19;;;;;;;2.95;2.15;;;;;;;;;;5047725;28;20491;-67
2022/08/28 07:33:48;;;;;;;2.03;1.45;;;;;;;;;;5047441;28;20055;-67
2022/08/28 07:36:23;;;;;;;2.70;1.25;;;;;;;;;;5040443;28;20049;-67
2022/08/28 07:38:57;;;;;;;4.63;2.15;;;;;;;;;;5044291;28;20072;-66
2022/08/28 07:41:27;;;;;;;5.07;2.58;;;;;;;;;;5044396;28;20037;-66
2022/08/28 07:46:43;;;;;;;3.85;1.85;;;;;;;;;;5039672;28;20552;-67
2022/08/28 07:49:14;;;;;;;2.88;1.65;;;;;;;;;;5047133;28;20501;-67
2022/08/28 07:51:42;;;;;;;4.30;2.38;;;;;;;;;;5045443;28;20068;-67
2022/08/28 07:54:14;;;;;;;2.83;1.48;;;;;;;;;;5048711;28;20048;-66
2022/08/28 07:56:45;;;;;;;2.95;2.35;;;;;;;;;;5049009;28;20106;-67
2022/08/28 07:59:16;;;;;;;4.03;1.95;;;;;;;;;;5043334;28;20171;-67
2022/08/28 08:01:48;;;;;;;3.65;1.98;;;;;;;;;;5047390;28;20469;-68
2022/08/28 08:04:18;;;;;;;4.85;1.67;;;;;;;;;;5047100;28;20053;-68
2022/08/28 08:06:47;;;;;;;3.20;1.75;;;;;;;;;;5047351;28;20124;-67
2022/08/28 08:09:16;;;;;;;3.05;1.75;;;;;;;;;;5041385;28;20041;-66
2022/08/28 08:11:45;;;;;;;3.65;2.03;;;;;;;;;;5044622;28;20552;-67
2022/08/28 08:14:14;;;;;;;2.95;1.83;;;;;;;;;;5049075;28;20057;-67
2022/08/28 08:16:44;;;;;;;2.90;1.57;;;;;;;;;;4998685;28;1208226;-67
2022/08/28 08:19:13;;;;;;;5.63;2.33;;;;;;;;;;5045215;28;20103;-66
2022/08/28 08:21:43;;;;;;;3.63;1.95;;;;;;;;;;5042478;28;20132;-67
2022/08/28 08:24:14;;;;;;;4.90;2.60;;;;;;;;;;5045932;28;20076;-67
2022/08/28 08:26:47;;;;;;;7.60;1.60;;;;;;;;;;5041868;28;20414;-66
2022/08/28 08:29:28;;;;;;;3.75;2.22;;;;;;;;;;5047747;28;20512;-67
2022/08/28 08:32:01;;;;;;;4.78;2.35;;;;;;;;;;5046438;28;20476;-67
2022/08/28 08:34:29;;;;;;;3.40;1.83;;;;;;;;;;5044627;28;20045;-67
2022/08/28 08:36:58;;;;;;;5.43;2.17;;;;;;;;;;5042190;28;20128;-70
2022/08/28 08:39:26;;;;;;;5.07;2.35;;;;;;;;;;5039820;28;20080;-66
2022/08/28 08:41:56;;;;;;;2.72;1.65;;;;;;;;;;5049034;28;20492;-67
2022/08/28 08:44:27;;;;;;;5.47;2.00;;;;;;;;;;5043620;28;20555;-68
2022/08/28 08:47:08;;;;;;;3.70;1.98;;;;;;;;;;5043769;28;20485;-66
2022/08/28 08:49:44;;;;;;;4.43;2.47;;;;;;;;;;5046819;28;20053;-68
2022/08/28 08:52:28;;;;;;;4.00;2.25;;;;;;;;;;5046636;28;20102;-67
2022/08/28 08:55:04;;;;;;;8.45;2.70;;;;;;;;;;5036282;28;20107;-66
2022/08/28 08:57:33;;;;;;;5.13;2.15;;;;;;;;;;5046835;28;20148;-67
2022/08/28 09:00:02;;;;;;;3.42;1.58;;;;;;;;;;5042278;28;20524;-68
2022/08/28 09:02:37;;;;;;;5.03;2.08;;;;;;;;;;5048530;28;20049;-67
2022/08/28 09:05:07;;;;;;;3.85;2.45;;;;;;;;;;5042418;28;20069;-68
2022/08/28 09:07:37;;;;;;;3.92;2.10;;;;;;;;;;5033299;28;20190;-68
2022/08/28 09:10:09;;;;;;;3.85;1.50;;;;;;;;;;5044934;28;20478;-66
2022/08/28 09:12:43;;;;;;;7.13;1.77;;;;;;;;;;5041272;28;20140;-66
2022/08/28 09:15:14;;;;;;;4.93;2.28;;;;;;;;;;5047455;28;20098;-67
2022/08/28 09:17:46;;;;;;;2.97;1.55;;;;;;;;;;5040213;28;20072;-68
2022/08/28 09:20:16;;;;;;;3.78;2.28;;;;;;;;;;5043935;28;20124;-66
2022/08/28 09:22:45;;;;;;;3.20;1.55;;;;;;;;;;5048610;28;20081;-66
2022/08/28 09:25:33;;;;;;;3.22;1.88;;;;;;;;;;5044355;28;20044;-66
2022/08/28 09:28:06;;;;;;;4.70;2.15;;;;;;;;;;5023637;28;20535;-67
2022/08/28 09:30:42;;;;;;;4.60;2.28;;;;;;;;;;5022717;28;20060;-67
2022/08/28 09:33:12;;;;;;;3.30;1.98;;;;;;;;;;5027564;28;20140;-67
2022/08/28 09:35:41;;;;;;;4.85;2.38;;;;;;;;;;5026861;28;20488;-66
2022/08/28 09:38:17;;;;;;;5.95;2.70;;;;;;;;;;5020713;28;20069;-66
2022/08/28 09:43:32;;;;;;;3.78;1.52;;;;;;;;;;5021738;28;20731;-66
2022/08/28 09:46:01;;;;;;;4.43;2.08;;;;;;;;;;5031830;28;20361;-66
2022/08/28 09:48:36;;;;;;;3.75;2.28;;;;;;;;;;5046292;28;20053;-66
2022/08/28 09:51:05;;;;;;;4.05;2.40;;;;;;;;;;5043206;28;20574;-66
2022/08/28 09:53:35;;;;;;;5.18;2.92;;;;;;;;;;5040826;28;20053;-67
2022/08/28 09:56:09;;;;;;;4.60;2.72;;;;;;;;;;5041937;28;20145;-66
2022/08/28 09:58:56;;;;;;;8.68;3.08;;;;;;;;;;5045016;28;20053;-66
2022/08/28 10:01:37;;;;;;;3.00;1.98;;;;;;;;;;5039843;28;20044;-67
2022/08/28 10:04:13;;;;;;;5.40;3.22;;;;;;;;;;5036725;28;20107;-68
2022/08/28 10:06:45;;;;;;;4.82;2.63;;;;;;;;;;5039869;28;20111;-67
2022/08/28 10:09:19;;;;;;;5.65;2.35;;;;;;;;;;5042541;28;20174;-69
2022/08/28 10:11:54;;;;;;;5.82;2.33;;;;;;;;;;5039908;28;20076;-66
2022/08/28 10:14:32;;;;;;;5.00;2.60;;;;;;;;;;5033295;28;20470;-68
2022/08/28 10:17:06;;;;;;;5.07;2.22;;;;;;;;;;5042714;28;20532;-66
2022/08/28 10:19:42;;;;;;;4.75;2.40;;;;;;;;;;5043094;28;20134;-68
2022/08/28 10:22:17;;;;;;;3.97;2.20;;;;;;;;;;5034822;28;20045;-67
2022/08/28 10:24:56;;;;;;;3.83;2.23;;;;;;;;;;5042174;28;20045;-66
2022/08/28 10:30:53;;;;;;;3.72;2.00;;;;;;;;;;5036278;28;20045;-67
2022/08/28 10:33:29;;;;;;;2.90;1.87;;;;;;;;;;5045627;28;20104;-66
2022/08/28 10:36:06;;;;;;;5.88;2.50;;;;;;;;;;5034520;28;20127;-66
2022/08/28 10:39:01;;;;;;;3.95;2.13;;;;;;;;;;5047648;28;20132;-67
2022/08/28 10:41:41;;;;;;;4.95;2.42;;;;;;;;;;5038902;28;20080;-68
2022/08/28 10:44:11;;;;;;;4.03;2.40;;;;;;;;;;5046118;28;20048;-69
2022/08/28 10:46:43;;;;;;;5.45;3.15;;;;;;;;;;5040879;28;20076;-67
2022/08/28 10:49:15;;;;;;;5.72;2.10;;;;;;;;;;5039900;28;20132;-68
2022/08/28 10:51:47;;;;;;;7.80;3.13;;;;;;;;;;5038649;28;20102;-67
2022/08/28 10:54:22;;;;;;;4.47;2.63;;;;;;;;;;5044399;28;20605;-68
2022/08/28 10:56:53;;;;;;;6.97;3.15;;;;;;;;;;5035785;28;20064;-68
2022/08/28 10:59:24;;;;;;;6.30;2.95;;;;;;;;;;5042379;28;20146;-67
2022/08/28 11:01:53;;;;;;;9.75;3.00;;;;;;;;;;5038412;28;20193;-68
2022/08/28 11:04:23;;;;;;;4.80;2.95;;;;;;;;;;5040978;28;20060;-67
2022/08/28 11:06:56;;;;;;;5.00;2.63;;;;;;;;;;5036484;28;20064;-68
2022/08/28 11:09:30;;;;;;;4.88;3.05;;;;;;;;;;5043570;28;20049;-68
2022/08/28 11:11:59;;;;;;;3.90;2.13;;;;;;;;;;5038052;28;20053;-67
2022/08/28 11:14:31;;;;;;;5.40;3.00;;;;;;;;;;5041503;28;20046;-69
2022/08/28 11:17:01;;;;;;;7.70;2.85;;;;;;;;;;5044765;28;20072;-68
2022/08/28 11:19:48;;;;;;;4.28;2.25;;;;;;;;;;5042739;28;20102;-68
2022/08/28 11:22:22;;;;;;;3.58;2.22;;;;;;;;;;5045329;28;20041;-68
2022/08/28 11:24:55;;;;;;;7.07;2.60;;;;;;;;;;5043453;28;20049;-67
2022/08/28 11:27:38;;;;;;;5.25;2.72;;;;;;;;;;5046911;28;20086;-68
2022/08/28 11:30:27;;;;;;;5.70;3.22;;;;;;;;;;5040712;28;20366;-68
2022/08/28 11:33:00;;;;;;;5.85;2.88;;;;;;;;;;5045726;28;20532;-67
2022/08/28 11:35:47;;;;;;;5.97;2.92;;;;;;;;;;5047216;28;20115;-69
2022/08/28 11:38:34;;;;;;;4.82;3.05;;;;;;;;;;5042720;28;20534;-67
2022/08/28 11:41:13;;;;;;;5.38;2.95;;;;;;;;;;5045434;28;20132;-71
2022/08/28 11:43:43;;;;;;;7.32;3.35;;;;;;;;;;5041578;28;20053;-68
2022/08/28 11:46:13;;;;;;;6.53;3.17;;;;;;;;;;5043743;28;20107;-68
2022/08/28 11:48:49;;;;;;;4.22;2.60;;;;;;;;;;5046004;28;20492;-68
2022/08/28 11:51:35;;;;;;;7.32;2.58;;;;;;;;;;5044385;28;20493;-69
2022/08/28 11:54:10;;;;;;;5.70;2.70;;;;;;;;;;5046058;28;20053;-71
2022/08/28 11:56:45;;;;;;;8.48;2.75;;;;;;;;;;5044190;28;20049;-67
2022/08/28 11:59:34;;;;;;;4.80;2.53;;;;;;;;;;5045634;28;20156;-69
2022/08/28 12:02:21;;;;;;;4.93;2.40;;;;;;;;;;5040314;28;20143;-69
2022/08/28 12:04:50;;;;;;;7.80;2.78;;;;;;;;;;5043922;28;20065;-69
2022/08/28 12:07:20;;;;;;;5.30;2.75;;;;;;;;;;5043922;28;20474;-68
2022/08/28 12:09:50;;;;;;;5.60;3.75;;;;;;;;;;5037234;28;20083;-71
2022/08/28 12:12:36;;;;;;;5.22;2.58;;;;;;;;;;5040013;28;20071;-68
2022/08/28 12:15:08;;;;;;;5.32;2.22;;;;;;;;;;5044814;28;20554;-69
2022/08/28 12:17:55;;;;;;;3.95;2.80;;;;;;;;;;5044457;28;20044;-69
2022/08/28 12:20:45;;;;;;;7.05;3.10;;;;;;;;;;5044902;28;20625;-69
2022/08/28 12:23:43;;;;;;;6.07;2.55;;;;;;;;;;5047465;28;20679;-69
2022/08/28 12:26:18;;;;;;;4.45;2.60;;;;;;;;;;4956376;28;20050;-69
2022/08/28 12:28:47;;;;;;;;;;;;;;;;;;5032964;28;20130;-72
2022/08/28 12:32:10;;;;;;;4.18;2.20;;;;;;;;;;5042370;28;20380;-69
2022/08/28 12:34:20;;;;;;;5.70;3.13;;;;;;;;;;5044451;28;20137;-69
2022/08/28 12:36:55;;;;;;;6.53;2.83;;;;;;;;;;5045381;28;20146;-71
2022/08/28 12:39:24;;;;;;;5.80;2.47;;;;;;;;;;5046013;28;20629;-70
2022/08/28 12:41:53;;;;;;;7.85;3.15;;;;;;;;;;5042141;28;20068;-71
2022/08/28 12:44:24;;;;;;;7.63;2.83;;;;;;;;;;5041762;28;20552;-70
2022/08/28 12:46:55;;;;;;;4.57;2.25;;;;;;;;;;5039136;28;20068;-70
2022/08/28 12:49:28;;;;;;;5.13;2.30;;;;;;;;;;5045980;28;20106;-74
2022/08/28 12:52:12;;;;;;;6.95;2.78;;;;;;;;;;5040526;28;20405;-71
2022/08/28 12:54:44;;;;;;;5.55;3.25;;;;;;;;;;5041898;28;20088;-71
2022/08/28 12:57:14;;;;;;;6.70;3.22;;;;;;;;;;5043765;28;20056;-72
2022/08/28 12:59:43;;;;;;;4.72;2.40;;;;;;;;;;5048357;28;20122;-70
2022/08/28 13:02:19;;;;;;;2.35;1.52;;;;;;;;;;5047874;28;20040;-71
2022/08/28 13:04:53;;;;;;;2.80;2.30;;;;;;;;;;5040604;28;20060;-70
2022/08/28 13:07:26;;;;;;;9.57;2.60;;;;;;;;;;5038694;28;20098;-70
2022/08/28 13:09:56;;;;;;;3.47;2.35;;;;;;;;;;5039645;28;20437;-70
2022/08/28 13:12:27;;;;;;;4.63;2.40;;;;;;;;;;5042181;28;20260;-72
2022/08/28 13:15:36;;;;;;;5.38;2.53;;;;;;;;;;5040653;28;20440;-71
2022/08/28 13:18:07;;;;;;;8.35;2.78;;;;;;;;;;5034252;28;20559;-70
2022/08/28 13:20:36;;;;;;;6.22;2.80;;;;;;;;;;5042101;28;20516;-71
2022/08/28 13:23:05;;;;;;;3.25;1.85;;;;;;;;;;5045683;28;20041;-72
2022/08/28 13:25:35;;;;;;;6.20;2.65;;;;;;;;;;5036104;28;20048;-71
2022/08/28 13:28:04;;;;;;;4.68;3.25;;;;;;;;;;5041260;28;20422;-70
2022/08/28 13:30:33;;;;;;;4.40;2.28;;;;;;;;;;5041364;28;20048;-71
2022/08/28 13:33:03;;;;;;;7.07;2.72;;;;;;;;;;5044923;28;20442;-71
2022/08/28 13:35:35;;;;;;;3.47;2.17;;;;;;;;;;5040354;28;20072;-71
2022/08/28 13:38:07;;;;;;;4.45;2.65;;;;;;;;;;5007732;28;20077;-71
2022/08/28 13:40:48;;;;;;;6.13;2.78;;;;;;;;;;5045301;28;20095;-71
2022/08/28 13:43:28;;;;;;;5.35;2.92;;;;;;;;;;5044808;28;20055;-71
2022/08/28 13:45:56;;;;;;;5.82;2.47;;;;;;;;;;5032896;28;20569;-71
2022/08/28 13:48:26;;;;;;;4.57;2.38;;;;;;;;;;5037133;28;20049;-71
2022/08/28 13:50:58;;;;;;;6.10;3.33;;;;;;;;;;5041399;28;20122;-70
2022/08/28 13:53:27;;;;;;;4.10;2.28;;;;;;;;;;5044016;28;20064;-71
2022/08/28 13:55:57;;;;;;;3.38;2.45;;;;;;;;;;5042828;28;20518;-69
2022/08/28 13:58:25;;;;;;;4.50;2.40;;;;;;;;;;5045387;28;20081;-70
2022/08/28 14:00:55;;;;;;;4.15;2.53;;;;;;;;;;5040631;28;20136;-70
2022/08/28 14:03:34;;;;;;;4.63;2.95;;;;;;;;;;5043195;28;20523;-70
2022/08/28 14:06:06;;;;;;;5.90;2.88;;;;;;;;;;5038070;28;20053;-70
2022/08/28 14:08:35;;;;;;;4.68;2.42;;;;;;;;;;5041704;28;20689;-70
2022/08/28 14:11:07;;;;;;;7.40;2.63;;;;;;;;;;5040889;28;20041;-70
2022/08/28 14:13:40;;;;;;;8.73;2.60;;;;;;;;;;5043575;28;20126;-70
2022/08/28 14:16:23;;;;;;;4.68;2.75;;;;;;;;;;5038876;28;20090;-70
2022/08/28 14:18:51;;;;;;;4.70;2.38;;;;;;;;;;5037932;28;20052;-69
2022/08/28 14:21:23;;;;;;;6.82;3.20;;;;;;;;;;5043058;28;20044;-70
2022/08/28 14:23:52;;;;;;;6.22;3.20;;;;;;;;;;5045383;28;20049;-69
2022/08/28 14:26:21;;;;;;;5.47;2.28;;;;;;;;;;5038748;28;20400;-69
2022/08/28 14:28:49;;;;;;;5.40;2.92;;;;;;;;;;5034577;28;20526;-70
2022/08/28 14:31:18;;;;;;;4.25;2.17;;;;;;;;;;5044787;28;20049;-69
2022/08/28 14:33:47;;;;;;;8.77;3.25;;;;;;;;;;5042761;28;20573;-69
2022/08/28 14:36:15;;;;;;;5.35;3.10;;;;;;;;;;5042890;28;20094;-70
2022/08/28 14:38:45;;;;;;;5.15;2.63;;;;;;;;;;5042011;28;20128;-70
2022/08/28 14:41:14;;;;;;;6.60;3.13;;;;;;;;;;5035553;28;20080;-71
2022/08/28 14:43:42;;;;;;;6.53;3.35;;;;;;;;;;5039617;28;20173;-72
2022/08/28 14:46:15;;;;;;;5.80;3.58;;;;;;;;;;5041945;28;20124;-70
2022/08/28 14:48:43;;;;;;;3.40;2.00;;;;;;;;;;5045845;28;20458;-69
2022/08/28 14:51:12;;;;;;;1.75;1.35;;;;;;;;;;5048005;28;20397;-69
2022/08/28 14:53:40;;;;;;;1.08;0.95;;;;;;;;;;5046837;28;20049;-69
2022/08/28 14:56:11;;;;;;;2.33;1.30;;;;;;;;;;5046788;28;20048;-70
2022/08/28 14:58:40;;;;;;;2.45;1.48;;;;;;;;;;5049206;28;20045;-68
2022/08/28 15:01:08;;;;;;;1.42;1.02;;;;;;;;;;5049176;28;20140;-68
2022/08/28 15:03:37;;;;;;;1.48;1.10;;;;;;;;;;5046858;28;20084;-70
2022/08/28 15:06:10;;;;;;;2.97;1.42;;;;;;;;;;5042913;28;20076;-69
2022/08/28 15:08:38;;;;;;;1.85;1.10;;;;;;;;;;5048380;28;20073;-70
2022/08/28 15:11:07;;;;;;;1.02;0.80;;;;;;;;;;5044488;28;20122;-68
2022/08/28 15:13:37;;;;;;;1.60;0.95;;;;;;;;;;5044271;28;20529;-68
2022/08/28 15:16:10;;;;;;;2.58;1.13;;;;;;;;;;5046176;28;20053;-69
2022/08/28 15:18:44;;;;;;;3.17;1.02;;;;;;;;;;5040837;28;20055;-68
2022/08/28 15:21:16;;;;;;;1.67;1.10;;;;;;;;;;5043248;28;20045;-68